createdAt,value
2019-02-26T00:00:49.688Z,21.33
2019-02-26T00:03:19.783Z,21.93
2019-02-26T00:05:49.914Z,23.57
2019-02-26T00:08:21.413Z,22.87
2019-02-26T00:10:47.497Z,21.70
2019-02-26T00:13:15.451Z,21.97
2019-02-26T00:15:45.760Z,23.80
2019-02-26T00:18:13.878Z,22.30
2019-02-26T00:20:44.770Z,20.73
2019-02-26T00:23:12.738Z,22.80
2019-02-26T00:25:40.510Z,21.80
2019-02-26T00:28:08.496Z,21.87
2019-02-26T00:30:38.008Z,24.13
2019-02-26T00:33:06.127Z,22.30
2019-02-26T00:35:35.040Z,21.57
2019-02-26T00:38:02.939Z,20.30
2019-02-26T00:40:32.618Z,21.73
2019-02-26T00:43:02.540Z,23.37
2019-02-26T00:45:33.535Z,24.03
2019-02-26T00:48:00.047Z,23.53
2019-02-26T00:50:28.516Z,21.60
2019-02-26T00:52:59.409Z,24.43
2019-02-26T00:55:29.838Z,21.60
2019-02-26T00:58:00.663Z,21.63
2019-02-26T01:00:28.602Z,22.47
2019-02-26T01:02:56.913Z,21.27
2019-02-26T01:05:24.690Z,19.90
2019-02-26T01:07:54.369Z,23.83
2019-02-26T01:10:23.627Z,22.50
2019-02-26T01:12:51.670Z,24.03
2019-02-26T01:15:19.583Z,23.83
2019-02-26T01:17:47.516Z,24.17
2019-02-26T01:20:15.889Z,27.20
2019-02-26T01:22:45.374Z,26.23
2019-02-26T01:25:15.875Z,26.17
2019-02-26T01:27:43.705Z,26.63
2019-02-26T01:30:18.261Z,27.90
2019-02-26T01:32:44.495Z,29.40
2019-02-26T01:35:12.995Z,27.97
2019-02-26T01:37:41.551Z,27.97
2019-02-26T01:40:15.083Z,30.10
2019-02-26T01:42:47.252Z,30.93
2019-02-26T01:45:13.772Z,30.70
2019-02-26T01:47:47.639Z,29.77
2019-02-26T01:50:16.046Z,28.97
2019-02-26T01:52:44.300Z,26.63
2019-02-26T01:55:16.147Z,30.77
2019-02-26T01:57:46.859Z,30.70
2019-02-26T02:00:17.261Z,33.83
2019-02-26T02:02:45.110Z,27.70
2019-02-26T02:05:13.731Z,28.87
2019-02-26T02:07:44.217Z,29.27
2019-02-26T02:10:13.378Z,26.70
2019-02-26T02:12:42.897Z,28.33
2019-02-26T02:15:12.381Z,31.63
2019-02-26T02:17:41.724Z,29.40
2019-02-26T02:20:13.227Z,30.70
2019-02-26T02:22:42.179Z,28.07
2019-02-26T02:25:13.014Z,27.40
2019-02-26T02:27:40.886Z,32.03
2019-02-26T02:30:18.548Z,28.47
2019-02-26T02:32:43.133Z,29.13
2019-02-26T02:35:12.734Z,30.60
2019-02-26T02:37:40.677Z,30.10
2019-02-26T02:40:09.384Z,34.20
2019-02-26T02:42:38.482Z,30.10
2019-02-26T02:45:11.314Z,31.93
2019-02-26T02:47:39.641Z,32.50
2019-02-26T02:50:12.062Z,28.90
2019-02-26T02:52:39.641Z,31.50
2019-02-26T02:55:09.881Z,34.93
2019-02-26T02:57:37.446Z,36.63
2019-02-26T03:00:08.514Z,36.70
2019-02-26T03:02:40.578Z,35.23
2019-02-26T03:05:07.692Z,38.40
2019-02-26T03:07:35.611Z,31.07
2019-02-26T03:10:06.683Z,35.60
2019-02-26T03:12:33.893Z,36.20
2019-02-26T03:15:02.875Z,37.43
2019-02-26T03:17:32.773Z,32.77
2019-02-26T03:20:04.174Z,34.63
2019-02-26T03:22:33.243Z,37.07
2019-02-26T03:25:02.277Z,35.43
2019-02-26T03:27:31.120Z,40.17
2019-02-26T03:30:02.054Z,40.77
2019-02-26T03:32:31.318Z,38.83
2019-02-26T03:35:02.048Z,37.17
2019-02-26T03:37:31.233Z,37.40
2019-02-26T03:40:00.133Z,43.47
2019-02-26T03:42:28.737Z,50.43
2019-02-26T03:44:56.703Z,40.03
2019-02-26T03:47:24.492Z,41.90
2019-02-26T03:49:52.262Z,36.27
2019-02-26T03:52:20.217Z,39.73
2019-02-26T03:54:50.538Z,35.77
2019-02-26T03:57:20.088Z,42.37
2019-02-26T03:59:47.823Z,39.03
2019-02-26T04:02:18.134Z,36.83
2019-02-26T04:04:45.879Z,34.87
2019-02-26T04:07:15.107Z,37.53
2019-02-26T04:09:44.390Z,33.77
2019-02-26T04:12:14.990Z,32.27
2019-02-26T04:14:42.771Z,30.33
2019-02-26T04:17:10.513Z,31.03
2019-02-26T04:19:38.461Z,30.73
2019-02-26T04:22:30.357Z,28.97
2019-02-26T04:25:09.238Z,30.37
2019-02-26T04:28:11.148Z,29.50
2019-02-26T04:31:57.630Z,28.97
2019-02-26T04:34:51.445Z,28.20
2019-02-26T04:38:32.087Z,26.67
2019-02-26T04:41:23.619Z,28.03
2019-02-26T04:45:09.136Z,31.43
2019-02-26T04:47:36.031Z,30.07
2019-02-26T04:50:06.213Z,28.53
2019-02-26T04:52:35.749Z,32.17
2019-02-26T04:55:03.780Z,32.77
2019-02-26T04:57:31.552Z,31.77
2019-02-26T05:00:01.327Z,32.63
2019-02-26T05:02:29.564Z,35.57
2019-02-26T05:04:57.561Z,30.50
2019-02-26T05:07:25.343Z,28.73
2019-02-26T05:09:55.867Z,32.67
2019-02-26T05:12:25.030Z,31.33
2019-02-26T05:14:52.835Z,31.90
2019-02-26T05:17:21.870Z,28.53
2019-02-26T05:19:51.751Z,30.10
2019-02-26T05:22:22.015Z,30.80
2019-02-26T05:24:50.277Z,31.33
2019-02-26T05:27:22.290Z,31.47
2019-02-26T05:29:52.547Z,32.47
2019-02-26T05:32:26.554Z,32.63
2019-02-26T05:34:52.071Z,31.30
2019-02-26T05:37:19.864Z,29.90
2019-02-26T05:39:49.101Z,27.47
2019-02-26T05:42:17.741Z,32.80
2019-02-26T05:44:45.497Z,37.03
2019-02-26T05:47:15.742Z,34.30
2019-02-26T05:49:45.664Z,33.20
2019-02-26T05:52:13.007Z,32.47
2019-02-26T05:54:40.764Z,33.50
2019-02-26T05:57:10.822Z,37.87
2019-02-26T05:59:38.462Z,29.43
2019-02-26T06:02:06.350Z,31.87
2019-02-26T06:04:35.235Z,30.40
2019-02-26T06:07:04.709Z,34.43
2019-02-26T06:09:33.967Z,32.67
2019-02-26T06:12:02.116Z,36.10
2019-02-26T06:14:32.961Z,32.87
2019-02-26T06:16:59.595Z,32.77
2019-02-26T06:19:44.927Z,35.47
2019-02-26T06:22:17.227Z,34.03
2019-02-26T06:24:42.748Z,31.77
2019-02-26T06:27:13.080Z,32.13
2019-02-26T06:29:40.545Z,31.90
2019-02-26T06:32:12.100Z,32.83
2019-02-26T06:34:39.946Z,31.83
2019-02-26T06:37:17.565Z,30.50
2019-02-26T06:39:45.473Z,32.70
2019-02-26T06:42:14.517Z,30.63
2019-02-26T06:44:43.823Z,34.53
2019-02-26T06:47:12.094Z,36.30
2019-02-26T06:49:41.414Z,32.10
2019-02-26T06:52:10.831Z,28.63
2019-02-26T06:54:39.610Z,31.70
2019-02-26T06:57:07.692Z,34.37
2019-02-26T06:59:36.859Z,36.40
2019-02-26T07:02:05.061Z,34.67
2019-02-26T07:04:34.073Z,33.30
2019-02-26T07:07:03.882Z,40.03
2019-02-26T07:09:34.675Z,37.07
2019-02-26T07:12:03.591Z,30.77
2019-02-26T07:14:32.810Z,33.67
2019-02-26T07:17:01.232Z,32.57
2019-02-26T07:19:30.782Z,31.27
2019-02-26T07:21:58.724Z,30.10
2019-02-26T07:24:27.173Z,32.23
2019-02-26T07:26:56.353Z,29.80
2019-02-26T07:29:24.136Z,33.93
2019-02-26T07:31:54.089Z,28.50
2019-02-26T07:34:22.849Z,28.37
2019-02-26T07:36:52.526Z,26.10
2019-02-26T07:39:22.709Z,28.67
2019-02-26T07:41:51.771Z,25.23
2019-02-26T07:44:21.711Z,24.00
2019-02-26T07:46:50.001Z,27.17
2019-02-26T07:49:19.840Z,25.33
2019-02-26T07:51:47.558Z,26.23
2019-02-26T07:54:15.549Z,26.17
2019-02-26T07:56:43.349Z,24.57
2019-02-26T07:59:14.473Z,25.33
2019-02-26T08:01:43.094Z,28.13
2019-02-26T08:04:13.574Z,25.63
2019-02-26T08:06:43.501Z,25.93
2019-02-26T08:09:13.966Z,25.13
2019-02-26T08:11:44.391Z,25.90
2019-02-26T08:14:14.318Z,23.77
2019-02-26T08:16:42.136Z,23.47
2019-02-26T08:19:09.888Z,32.63
2019-02-26T08:21:37.897Z,25.77
2019-02-26T08:24:05.661Z,25.27
2019-02-26T08:26:33.485Z,26.10
2019-02-26T08:29:02.626Z,26.10
2019-02-26T08:31:31.207Z,26.93
2019-02-26T08:33:59.190Z,25.27
2019-02-26T08:36:26.957Z,25.77
2019-02-26T08:38:57.146Z,27.47
2019-02-26T08:41:24.755Z,25.80
2019-02-26T08:43:54.581Z,27.30
2019-02-26T08:46:22.406Z,26.47
2019-02-26T08:48:50.789Z,25.50
2019-02-26T08:51:21.059Z,26.00
2019-02-26T08:53:49.503Z,24.90
2019-02-26T08:56:18.897Z,24.50
2019-02-26T08:58:47.050Z,22.87
2019-02-26T09:01:14.815Z,24.73
2019-02-26T09:03:42.760Z,22.60
2019-02-26T09:06:13.499Z,22.30
2019-02-26T09:08:41.203Z,21.47
2019-02-26T09:11:11.449Z,22.13
2019-02-26T09:13:41.168Z,22.83
2019-02-26T09:16:09.794Z,22.37
2019-02-26T09:18:40.176Z,22.30
2019-02-26T09:21:07.354Z,21.97
2019-02-26T09:23:35.348Z,22.47
2019-02-26T09:26:05.158Z,23.00
2019-02-26T09:28:32.818Z,24.27
2019-02-26T09:31:01.887Z,23.30
2019-02-26T09:33:32.945Z,21.67
2019-02-26T09:36:00.304Z,22.20
2019-02-26T09:38:28.415Z,22.30
2019-02-26T09:40:57.100Z,21.33
2019-02-26T09:43:25.030Z,21.03
2019-02-26T09:45:53.016Z,21.37
2019-02-26T09:48:25.321Z,22.30
2019-02-26T09:50:53.100Z,21.83
2019-02-26T09:53:21.077Z,21.13
2019-02-26T09:55:49.058Z,19.60
2019-02-26T09:58:21.191Z,20.70
2019-02-26T10:00:50.928Z,20.93
2019-02-26T10:03:18.117Z,21.50
2019-02-26T10:05:48.224Z,21.10
2019-02-26T10:08:17.359Z,20.53
2019-02-26T10:10:45.419Z,21.50
2019-02-26T10:13:13.355Z,18.87
2019-02-26T10:15:42.770Z,21.43
2019-02-26T10:18:11.036Z,19.90
2019-02-26T10:20:38.830Z,20.37
2019-02-26T10:23:06.629Z,19.60
2019-02-26T10:25:35.564Z,19.27
2019-02-26T10:28:08.760Z,19.23
2019-02-26T10:30:36.221Z,19.60
2019-02-26T10:33:07.054Z,19.80
2019-02-26T10:35:36.234Z,19.33
2019-02-26T10:38:07.674Z,19.60
2019-02-26T10:40:37.044Z,18.87
2019-02-26T10:43:04.214Z,18.37
2019-02-26T10:45:38.697Z,16.77
2019-02-26T10:48:03.275Z,17.87
2019-02-26T10:50:32.338Z,17.33
2019-02-26T10:53:06.956Z,16.30
2019-02-26T10:55:38.389Z,16.40
2019-02-26T10:58:06.829Z,16.70
2019-02-26T11:00:34.772Z,17.33
2019-02-26T11:03:01.404Z,17.57
2019-02-26T11:05:29.196Z,16.77
2019-02-26T11:07:59.839Z,15.97
2019-02-26T11:10:26.844Z,16.17
2019-02-26T11:12:58.613Z,16.13
2019-02-26T11:15:26.706Z,15.40
2019-02-26T11:17:55.844Z,15.70
2019-02-26T11:20:27.034Z,13.77
2019-02-26T11:22:53.861Z,14.30
2019-02-26T11:25:24.175Z,13.90
2019-02-26T11:27:51.558Z,13.63
2019-02-26T11:30:21.126Z,11.73
2019-02-26T11:32:49.240Z,14.33
2019-02-26T11:35:19.496Z,13.83
2019-02-26T11:37:49.841Z,15.20
2019-02-26T11:40:18.161Z,13.33
2019-02-26T11:42:48.839Z,11.67
2019-02-26T11:45:19.304Z,13.40
2019-02-26T11:47:47.067Z,14.83
2019-02-26T11:50:16.632Z,14.83
2019-02-26T11:52:44.918Z,12.93
2019-02-26T11:55:13.552Z,13.37
2019-02-26T11:57:43.177Z,13.13
2019-02-26T12:00:24.255Z,13.90
2019-02-26T12:02:46.430Z,11.00
2019-02-26T12:05:14.202Z,10.07
2019-02-26T12:07:42.172Z,11.70
2019-02-26T12:10:14.524Z,11.07
2019-02-26T12:12:41.649Z,10.70
2019-02-26T12:15:12.464Z,12.17
2019-02-26T12:17:40.952Z,12.70
2019-02-26T12:20:12.136Z,13.33
2019-02-26T12:22:44.474Z,13.50
2019-02-26T12:25:11.950Z,13.30
2019-02-26T12:27:41.336Z,14.30
2019-02-26T12:30:15.823Z,13.57
2019-02-26T12:32:47.254Z,13.67
2019-02-26T12:35:15.902Z,12.30
2019-02-26T12:37:43.546Z,13.60
2019-02-26T12:40:13.023Z,13.40
2019-02-26T12:42:41.840Z,12.37
2019-02-26T12:45:13.614Z,13.47
2019-02-26T12:47:43.007Z,12.10
2019-02-26T12:50:14.008Z,13.20
2019-02-26T12:52:42.310Z,10.03
2019-02-26T12:55:12.018Z,11.03
2019-02-26T12:57:40.020Z,10.67
2019-02-26T13:00:13.357Z,11.73
2019-02-26T13:02:43.358Z,12.87
2019-02-26T13:05:13.472Z,11.57
2019-02-26T13:07:42.204Z,11.60
2019-02-26T13:10:14.688Z,11.53
2019-02-26T13:12:48.784Z,11.13
2019-02-26T13:15:19.098Z,14.90
2019-02-26T13:17:45.255Z,15.10
2019-02-26T13:20:17.039Z,15.23
2019-02-26T13:22:45.962Z,12.70
2019-02-26T13:25:17.128Z,12.00
2019-02-26T13:27:47.276Z,13.03
2019-02-26T13:30:18.225Z,11.57
2019-02-26T13:33:05.196Z,13.33
2019-02-26T13:35:15.842Z,14.87
2019-02-26T13:37:44.375Z,13.37
2019-02-26T13:40:14.927Z,14.60
2019-02-26T13:42:42.705Z,15.20
2019-02-26T13:45:13.954Z,14.20
2019-02-26T13:47:42.194Z,15.33
2019-02-26T13:50:13.781Z,13.80
2019-02-26T13:52:41.895Z,12.07
2019-02-26T13:55:12.139Z,12.93
2019-02-26T13:57:39.941Z,13.30
2019-02-26T14:00:13.104Z,13.80
2019-02-26T14:02:40.885Z,14.07
2019-02-26T14:05:09.219Z,13.67
2019-02-26T14:07:37.228Z,14.80
2019-02-26T14:10:07.693Z,15.93
2019-02-26T14:12:35.632Z,14.90
2019-02-26T14:15:04.120Z,13.57
2019-02-26T14:17:31.885Z,14.00
2019-02-26T14:19:59.821Z,13.40
2019-02-26T14:22:27.598Z,14.53
2019-02-26T14:24:55.496Z,13.97
2019-02-26T14:27:23.472Z,15.20
2019-02-26T14:29:51.296Z,14.70
2019-02-26T14:32:19.239Z,15.20
2019-02-26T14:34:47.096Z,14.83
2019-02-26T14:37:14.901Z,14.37
2019-02-26T14:39:42.942Z,14.50
2019-02-26T14:42:10.884Z,14.03
2019-02-26T14:44:38.776Z,14.33
2019-02-26T14:47:06.694Z,13.77
2019-02-26T14:49:34.505Z,18.87
2019-02-26T14:52:02.600Z,15.30
2019-02-26T14:54:30.393Z,15.30
2019-02-26T14:56:58.205Z,15.77
2019-02-26T14:59:26.452Z,15.77
2019-02-26T15:01:55.896Z,15.90
2019-02-26T15:04:23.909Z,16.40
2019-02-26T15:06:53.616Z,17.53
2019-02-26T15:09:21.444Z,17.37
2019-02-26T15:11:49.429Z,15.73
2019-02-26T15:14:17.442Z,16.00
2019-02-26T15:16:45.275Z,15.97
2019-02-26T15:19:13.060Z,15.03
2019-02-26T15:21:41.066Z,15.87
2019-02-26T15:24:09.257Z,16.27
2019-02-26T15:26:37.202Z,16.00
2019-02-26T15:29:05.185Z,14.90
2019-02-26T15:31:33.049Z,14.27
2019-02-26T15:34:01.017Z,12.60
2019-02-26T15:36:30.626Z,14.13
2019-02-26T15:38:59.457Z,12.70
2019-02-26T15:41:27.528Z,13.27
2019-02-26T15:43:56.537Z,12.90
2019-02-26T15:46:25.121Z,12.97
2019-02-26T15:48:53.265Z,13.30
2019-02-26T15:51:21.187Z,13.93
2019-02-26T15:53:49.226Z,13.43
2019-02-26T15:56:17.028Z,13.13
2019-02-26T15:58:46.622Z,14.70
2019-02-26T16:01:15.152Z,13.97
2019-02-26T16:03:45.382Z,13.40
2019-02-26T16:06:13.201Z,13.93
2019-02-26T16:08:41.365Z,14.33
2019-02-26T16:11:10.857Z,14.63
2019-02-26T16:13:38.688Z,14.83
2019-02-26T16:16:06.608Z,13.77
2019-02-26T16:18:34.402Z,14.10
2019-02-26T16:21:02.352Z,13.13
2019-02-26T16:23:30.153Z,13.43
2019-02-26T16:25:57.946Z,14.30
2019-02-26T16:28:27.331Z,13.70
2019-02-26T16:30:56.464Z,13.20
2019-02-26T16:33:24.476Z,14.63
2019-02-26T16:35:52.413Z,13.17
2019-02-26T16:38:20.215Z,13.30
2019-02-26T16:40:48.599Z,17.97
2019-02-26T16:43:17.137Z,14.03
2019-02-26T16:45:46.090Z,14.53
2019-02-26T16:48:13.895Z,14.30
2019-02-26T16:50:45.567Z,13.27
2019-02-26T16:53:18.012Z,16.63
2019-02-26T16:55:48.555Z,14.60
2019-02-26T16:58:15.653Z,14.37
2019-02-26T17:00:43.547Z,19.70
2019-02-26T17:03:11.620Z,16.33
2019-02-26T17:05:40.843Z,16.53
2019-02-26T17:08:10.102Z,17.27
2019-02-26T17:10:38.160Z,22.50
2019-02-26T17:13:05.973Z,24.27
2019-02-26T17:15:34.055Z,18.63
2019-02-26T17:18:01.846Z,19.40
2019-02-26T17:20:29.712Z,20.30
2019-02-26T17:22:58.895Z,19.57
2019-02-26T17:25:28.480Z,19.63
2019-02-26T17:27:56.652Z,21.83
2019-02-26T17:30:24.816Z,22.33
2019-02-26T17:32:52.855Z,20.50
2019-02-26T17:35:20.657Z,22.60
2019-02-26T17:37:48.683Z,21.60
2019-02-26T17:40:16.929Z,23.90
2019-02-26T17:42:44.942Z,22.73
2019-02-26T17:45:15.239Z,22.77
2019-02-26T17:47:43.039Z,22.33
2019-02-26T17:50:18.474Z,23.23
2019-02-26T17:52:46.276Z,25.27
2019-02-26T17:55:14.279Z,22.37
2019-02-26T17:57:42.911Z,25.10
2019-02-26T18:00:13.102Z,24.80
2019-02-26T18:02:40.886Z,23.43
2019-02-26T18:05:10.693Z,25.57
2019-02-26T18:07:39.037Z,25.53
2019-02-26T18:10:12.543Z,24.67
2019-02-26T18:12:42.676Z,25.23
2019-02-26T18:15:10.741Z,24.70
2019-02-26T18:17:38.678Z,28.47
2019-02-26T18:20:11.209Z,27.67
2019-02-26T18:22:39.263Z,25.53
2019-02-26T18:25:09.589Z,25.37
2019-02-26T18:27:37.650Z,26.37
2019-02-26T18:30:07.467Z,26.70
2019-02-26T18:32:35.310Z,28.53
2019-02-26T18:35:03.499Z,30.23
2019-02-26T18:37:31.337Z,27.90
2019-02-26T18:39:59.144Z,25.80
2019-02-26T18:42:27.104Z,27.03
2019-02-26T18:44:55.194Z,25.47
2019-02-26T18:47:23.320Z,25.63
2019-02-26T18:49:52.815Z,26.00
2019-02-26T18:52:21.156Z,30.87
2019-02-26T18:54:49.001Z,25.50
2019-02-26T18:57:18.187Z,25.03
2019-02-26T18:59:46.201Z,26.80
2019-02-26T19:02:14.037Z,25.73
2019-02-26T19:04:42.128Z,27.57
2019-02-26T19:07:10.133Z,33.10
2019-02-26T19:09:37.970Z,33.37
2019-02-26T19:12:05.807Z,32.43
2019-02-26T19:14:33.851Z,28.87
2019-02-26T19:17:01.855Z,26.47
2019-02-26T19:19:29.756Z,28.40
2019-02-26T19:21:59.006Z,29.80
2019-02-26T19:24:27.129Z,27.40
2019-02-26T19:26:55.095Z,31.43
2019-02-26T19:29:23.152Z,30.23
2019-02-26T19:31:50.970Z,26.77
2019-02-26T19:34:18.821Z,29.20
2019-02-26T19:36:46.855Z,26.30
2019-02-26T19:39:14.699Z,28.10
2019-02-26T19:41:45.268Z,29.60
2019-02-26T19:44:12.510Z,30.47
2019-02-26T19:46:40.724Z,27.67
2019-02-26T19:49:08.750Z,30.90
2019-02-26T19:51:36.550Z,30.00
2019-02-26T19:54:04.751Z,40.53
2019-02-26T19:56:34.203Z,28.60
2019-02-26T19:59:02.153Z,31.87
2019-02-26T20:01:30.073Z,29.93
2019-02-26T20:03:58.044Z,30.13
2019-02-26T20:06:26.910Z,32.37
2019-02-26T20:08:55.211Z,30.60
2019-02-26T20:11:23.376Z,27.77
2019-02-26T20:13:51.481Z,25.80
2019-02-26T20:16:19.289Z,27.23
2019-02-26T20:18:47.183Z,29.00
2019-02-26T20:21:16.842Z,30.50
2019-02-26T20:23:46.829Z,26.17
2019-02-26T20:26:16.479Z,28.83
2019-02-26T20:28:44.470Z,33.00
2019-02-26T20:31:12.513Z,28.00
2019-02-26T20:33:40.713Z,27.90
2019-02-26T20:36:08.662Z,30.20
2019-02-26T20:38:36.839Z,27.27
2019-02-26T20:41:04.644Z,27.50
2019-02-26T20:43:36.392Z,29.73
2019-02-26T20:46:02.424Z,34.53
2019-02-26T20:48:36.852Z,27.93
2019-02-26T20:51:04.618Z,32.20
2019-02-26T20:53:32.578Z,28.53
2019-02-26T20:56:00.523Z,32.00
2019-02-26T20:58:28.331Z,30.00
2019-02-26T21:00:58.637Z,32.80
2019-02-26T21:03:26.087Z,29.23
2019-02-26T21:05:53.889Z,34.00
2019-02-26T21:08:22.763Z,30.40
2019-02-26T21:10:50.818Z,29.13
2019-02-26T21:13:18.602Z,29.27
2019-02-26T21:15:47.309Z,29.13
2019-02-26T21:18:16.204Z,32.00
2019-02-26T21:20:44.019Z,29.23
2019-02-26T21:23:11.839Z,31.03
2019-02-26T21:25:43.927Z,30.50
2019-02-26T21:28:09.500Z,30.70
2019-02-26T21:30:37.294Z,30.00
2019-02-26T21:33:05.355Z,27.40
2019-02-26T21:35:33.183Z,28.30
2019-02-26T21:38:00.962Z,27.70
2019-02-26T21:40:29.977Z,28.37
2019-02-26T21:43:01.754Z,32.03
2019-02-26T21:45:29.206Z,33.40
2019-02-26T21:47:57.221Z,29.07
2019-02-26T21:50:25.260Z,30.87
2019-02-26T21:53:00.061Z,29.83
2019-02-26T21:55:26.518Z,29.57
2019-02-26T21:57:55.271Z,29.07
2019-02-26T22:00:23.415Z,36.03
2019-02-26T22:02:52.384Z,31.77
2019-02-26T22:05:21.106Z,28.03
2019-02-26T22:07:51.978Z,28.57
2019-02-26T22:10:19.265Z,26.43
2019-02-26T22:12:48.996Z,34.17
2019-02-26T22:15:16.982Z,37.60
2019-02-26T22:17:44.762Z,30.50
2019-02-26T22:20:22.115Z,35.03
2019-02-26T22:22:43.174Z,36.37
2019-02-26T22:25:15.981Z,29.40
2019-02-26T22:27:41.611Z,34.50
2019-02-26T22:30:12.741Z,31.33
2019-02-26T22:32:40.659Z,33.90
2019-02-26T22:35:08.760Z,31.50
2019-02-26T22:37:38.926Z,34.23
2019-02-26T22:40:08.113Z,35.97
2019-02-26T22:42:35.967Z,31.60
2019-02-26T22:45:04.538Z,30.90
2019-02-26T22:47:32.317Z,32.17
2019-02-26T22:50:00.292Z,30.93
2019-02-26T22:52:30.615Z,41.40
2019-02-26T22:54:58.173Z,39.90
2019-02-26T22:57:29.786Z,33.30
2019-02-26T22:59:57.589Z,34.37
2019-02-26T23:02:25.911Z,35.30
2019-02-26T23:04:55.684Z,35.20
2019-02-26T23:07:23.558Z,33.30
2019-02-26T23:09:52.433Z,30.63
2019-02-26T23:12:21.476Z,32.07
2019-02-26T23:14:49.365Z,37.63
2019-02-26T23:17:17.771Z,36.10
2019-02-26T23:19:45.660Z,36.77
2019-02-26T23:22:13.544Z,31.83
2019-02-26T23:24:41.518Z,34.93
2019-02-26T23:27:09.424Z,32.17
2019-02-26T23:29:40.617Z,34.77
2019-02-26T23:32:08.585Z,37.03
2019-02-26T23:34:36.793Z,34.87
2019-02-26T23:37:05.179Z,34.07
2019-02-26T23:39:32.961Z,38.17
2019-02-26T23:42:00.947Z,37.07
2019-02-26T23:44:28.712Z,38.57
2019-02-26T23:46:56.468Z,35.70
2019-02-26T23:49:24.515Z,38.90
2019-02-26T23:51:53.815Z,35.90
2019-02-26T23:54:22.145Z,35.80
2019-02-26T23:56:52.099Z,34.30
2019-02-26T23:59:19.780Z,35.43
